Fanwood, NJ (07023)

12:47 PM EDT on July 06, 2015 (GMT -0400)
Fire Station #161 | | Change Station
CLOSE
Current Station
Personal Weather Station
Location: Scotch Plains, NJ
Elevation: 144 ft
Nearby Weather Stations

Elev 144 ft 40.65 °N, 74.40 °W | Updated 1 second ago

Partly Cloudy
Partly Cloudy
83.5 °F
Feels Like 87 °F
N
0.0
Wind Variable Wind from SW
Gusts 0.0 mph

Today
High -- | Low -- °F
--% Chance of Precip.
Yesterday
High -- | Low -- °F
Precip. -- in
5:32 AM 8:31 PM
Waning Gibbous, 74% visible
Pressure 30.17 in
Visibility 10.0 miles
Clouds Scattered Clouds 3200 ft
Scattered Clouds 12000 ft
Heat Index 87 °F
Dew Point 69 °F
Humidity 61%
Rainfall 0.00 in
Snow Depth Not available.
UV 7.9 out of 12
Pollen 3.90 out of 12
Air Quality Not available.
Flu Activity Not available.
METAR KLDJ 061635Z AUTO 15006KT 10SM SCT032 SCT120 30/21 A3017 RMK AO2 T02980211

More Conditions Fewer Conditions

Pressure 30.17 in
Visibility 10.0 miles
Clouds Scattered Clouds 3200 ft
Scattered Clouds 12000 ft
Heat Index 87 °F
Dew Point 69 °F
Humidity 61%
Rainfall 0.00 in
Snow Depth Not available.
UV 7.9 out of 12
Pollen 3.90 out of 12
Air Quality Not available.
Flu Activity Not available.
METAR KLDJ 061635Z AUTO 15006KT 10SM SCT032 SCT120 30/21 A3017 RMK AO2 T02980211

More Conditions Fewer Conditions

10-Day Weather Forecast

×

Almanac

Astronomy

Jul. 06, 2015 Rise Set
Actual Time
Civil Twilight
Nautical Twilight
Astronomical Twilight
Moon
Length of Visible Light
Length of Day
Tomorrow will be .
, % of the Moon is Illuminated

Today's Extremes

State Highs State Lows

Community

WunderPhotos

Upload Photos

1,835,599 photos uploaded!

WunderBlogs® & News

Nearby

Air Quality

  Air Quality AQ Index Pollutant
Not available.

Snow Depth

Station Depth Elevation

Earthquake Activity

City Distance Mag. Time & Date
Minimum magnitude displayed is 2.5.

Coastal Water Temperatures

Place Temperature

Stations

Nearby Weather Stations

Station Location Temp. Windchill Dew Point Humidity Wind Precip. Elev Updated Type